createdAt,value
2023-12-09T00:01:22.340Z,53.65
2023-12-09T00:03:50.523Z,57.60
2023-12-09T00:06:18.782Z,57.22
2023-12-09T00:08:46.894Z,58.67
2023-12-09T00:11:15.168Z,57.85
2023-12-09T00:13:43.157Z,60.10
2023-12-09T00:16:11.447Z,60.72
2023-12-09T00:18:40.929Z,60.40
2023-12-09T00:21:09.091Z,62.80
2023-12-09T00:23:47.079Z,61.90
2023-12-09T00:26:16.486Z,63.03
2023-12-09T00:28:44.857Z,62.47
2023-12-09T00:31:12.929Z,63.72
2023-12-09T00:33:42.811Z,63.83
2023-12-09T00:36:11.484Z,62.05
2023-12-09T00:38:41.021Z,59.80
2023-12-09T00:41:09.149Z,61.05
2023-12-09T00:43:37.229Z,58.45
2023-12-09T00:46:05.562Z,55.08
2023-12-09T00:48:33.715Z,54.03
2023-12-09T00:51:03.327Z,52.75
2023-12-09T00:53:31.392Z,48.60
2023-12-09T00:55:59.511Z,50.08
2023-12-09T00:58:27.637Z,45.97
2023-12-09T01:00:55.681Z,46.22
2023-12-09T01:03:23.858Z,43.42
2023-12-09T01:05:52.046Z,41.70
2023-12-09T01:08:21.721Z,39.40
2023-12-09T01:10:49.790Z,37.97
2023-12-09T01:13:17.865Z,35.60
2023-12-09T01:15:46.085Z,36.60
2023-12-09T01:18:14.257Z,34.92
2023-12-09T01:20:42.368Z,32.50
2023-12-09T01:23:10.393Z,32.83
2023-12-09T01:25:40.035Z,31.63
2023-12-09T01:28:08.799Z,32.17
2023-12-09T01:30:37.438Z,32.40
2023-12-09T01:33:05.783Z,30.52
2023-12-09T01:35:33.948Z,31.88
2023-12-09T01:38:01.964Z,33.15
2023-12-09T01:40:30.022Z,30.45
2023-12-09T01:42:59.417Z,31.30
2023-12-09T01:45:27.541Z,29.88
2023-12-09T01:47:54.835Z,30.05
2023-12-09T01:50:23.069Z,28.55
2023-12-09T01:52:51.242Z,30.27
2023-12-09T01:55:19.467Z,30.38
2023-12-09T01:57:47.497Z,30.42
2023-12-09T02:00:20.050Z,28.67
2023-12-09T02:02:49.842Z,30.13
2023-12-09T02:05:18.103Z,27.75
2023-12-09T02:07:46.751Z,29.70
2023-12-09T02:10:14.878Z,31.00
2023-12-09T02:12:49.165Z,31.83
2023-12-09T02:15:24.263Z,31.63
2023-12-09T02:17:56.223Z,32.03
2023-12-09T02:20:24.650Z,32.28
2023-12-09T02:22:52.904Z,32.65
2023-12-09T02:25:22.262Z,31.05
2023-12-09T02:27:55.016Z,31.52
2023-12-09T02:30:29.766Z,34.03
2023-12-09T02:33:00.375Z,32.55
2023-12-09T02:35:31.366Z,32.47
2023-12-09T02:38:01.055Z,32.95
2023-12-09T02:40:31.794Z,34.05
2023-12-09T02:43:00.211Z,35.05
2023-12-09T02:45:28.302Z,36.75
2023-12-09T02:47:56.462Z,36.38
2023-12-09T02:50:24.689Z,35.63
2023-12-09T02:52:52.694Z,33.70
2023-12-09T02:55:20.739Z,32.70
2023-12-09T02:57:50.252Z,33.20
2023-12-09T03:00:18.961Z,31.98
2023-12-09T03:02:47.019Z,29.92
2023-12-09T03:05:15.542Z,32.40
2023-12-09T03:07:43.590Z,31.58
2023-12-09T03:10:12.030Z,30.55
2023-12-09T03:12:40.301Z,30.02
2023-12-09T03:15:10.924Z,32.50
2023-12-09T03:17:39.185Z,32.85
2023-12-09T03:20:09.781Z,36.25
2023-12-09T03:22:38.002Z,33.40
2023-12-09T03:25:07.134Z,34.00
2023-12-09T03:27:35.381Z,32.85
2023-12-09T03:30:03.543Z,32.75
2023-12-09T03:32:32.994Z,31.85
2023-12-09T03:35:01.063Z,32.25
2023-12-09T03:37:29.160Z,31.10
2023-12-09T03:39:57.180Z,30.92
2023-12-09T03:42:25.419Z,32.83
2023-12-09T03:44:53.709Z,33.63
2023-12-09T03:47:28.387Z,36.30
2023-12-09T03:49:58.982Z,40.03
2023-12-09T03:52:27.331Z,39.47
2023-12-09T03:54:55.473Z,44.47
2023-12-09T03:57:23.511Z,45.85
2023-12-09T03:59:51.725Z,51.03
2023-12-09T04:02:20.506Z,53.05
2023-12-09T04:04:48.563Z,56.08
2023-12-09T04:07:17.944Z,59.67
2023-12-09T04:09:45.946Z,57.50
2023-12-09T04:12:13.994Z,57.97
2023-12-09T04:14:42.668Z,58.13
2023-12-09T04:17:11.412Z,64.00
2023-12-09T04:19:39.572Z,65.47
2023-12-09T04:22:07.865Z,67.82
2023-12-09T04:24:37.337Z,69.65
2023-12-09T04:27:05.945Z,70.20
2023-12-09T04:29:34.110Z,77.32
2023-12-09T04:32:02.224Z,81.65
2023-12-09T04:34:30.325Z,83.38
2023-12-09T04:36:58.646Z,83.97
2023-12-09T04:39:27.143Z,86.13
2023-12-09T04:41:56.591Z,90.68
2023-12-09T04:44:26.032Z,89.85
2023-12-09T04:46:54.156Z,93.32
2023-12-09T04:49:23.095Z,91.28
2023-12-09T04:51:51.226Z,93.93
2023-12-09T04:54:19.555Z,91.50
2023-12-09T04:56:47.588Z,91.45
2023-12-09T04:59:17.013Z,90.88
2023-12-09T05:01:45.030Z,88.07
2023-12-09T05:04:13.325Z,86.47
2023-12-09T05:06:41.387Z,84.60
2023-12-09T05:09:11.320Z,86.60
2023-12-09T05:11:39.771Z,86.25
2023-12-09T05:14:08.064Z,85.07
2023-12-09T05:16:37.606Z,85.07
2023-12-09T05:19:07.510Z,82.80
2023-12-09T05:21:36.719Z,82.40
2023-12-09T05:24:05.681Z,78.50
2023-12-09T05:26:34.537Z,77.22
2023-12-09T05:29:02.637Z,74.95
2023-12-09T05:31:30.718Z,71.57
2023-12-09T05:34:00.379Z,70.43
2023-12-09T05:36:28.594Z,66.10
2023-12-09T05:38:56.720Z,64.78
2023-12-09T05:41:24.842Z,63.97
2023-12-09T05:43:52.894Z,61.33
2023-12-09T05:46:21.784Z,60.58
2023-12-09T05:48:50.846Z,58.88
2023-12-09T05:51:20.559Z,59.70
2023-12-09T05:53:48.651Z,58.47
2023-12-09T05:56:16.709Z,58.92
2023-12-09T05:58:44.727Z,57.50
2023-12-09T06:01:12.807Z,58.40
2023-12-09T06:03:40.958Z,57.00
2023-12-09T06:06:09.532Z,54.10
2023-12-09T06:08:39.056Z,51.50
2023-12-09T06:11:07.276Z,51.90
2023-12-09T06:13:35.460Z,52.88
2023-12-09T06:16:03.823Z,51.63
2023-12-09T06:18:32.028Z,54.88
2023-12-09T06:21:00.141Z,54.67
2023-12-09T06:23:28.210Z,53.78
2023-12-09T06:25:57.644Z,53.35
2023-12-09T06:28:25.677Z,51.92
2023-12-09T06:30:55.593Z,51.85
2023-12-09T06:33:25.011Z,49.58
2023-12-09T06:35:53.061Z,46.67
2023-12-09T06:38:21.087Z,48.38
2023-12-09T06:40:49.127Z,47.35
2023-12-09T06:43:18.515Z,46.50
2023-12-09T06:45:46.634Z,48.42
2023-12-09T06:48:14.928Z,46.63
2023-12-09T06:50:44.440Z,47.38
2023-12-09T06:53:14.616Z,48.95
2023-12-09T06:55:42.841Z,45.42
2023-12-09T06:58:11.850Z,47.20
2023-12-09T07:00:41.429Z,47.03
2023-12-09T07:03:09.721Z,46.25
2023-12-09T07:05:37.865Z,47.20
2023-12-09T07:08:06.275Z,49.92
2023-12-09T07:10:34.373Z,43.90
2023-12-09T07:13:02.387Z,45.05
2023-12-09T07:15:30.460Z,44.10
2023-12-09T07:17:59.994Z,45.15
2023-12-09T07:20:28.110Z,46.83
2023-12-09T07:22:58.247Z,48.63
2023-12-09T07:25:26.647Z,49.00
2023-12-09T07:27:54.670Z,51.05
2023-12-09T07:30:22.798Z,50.13
2023-12-09T07:32:51.219Z,47.90
2023-12-09T07:35:21.048Z,50.40
2023-12-09T07:37:49.146Z,51.33
2023-12-09T07:40:17.395Z,49.28
2023-12-09T07:42:45.572Z,47.80
2023-12-09T07:45:14.008Z,49.92
2023-12-09T07:47:42.174Z,46.70
2023-12-09T07:50:12.388Z,48.88
2023-12-09T07:52:42.140Z,48.50
2023-12-09T07:55:10.504Z,47.90
2023-12-09T07:57:38.704Z,48.03
2023-12-09T08:00:09.116Z,44.67
2023-12-09T08:02:37.361Z,45.35
2023-12-09T08:05:07.468Z,45.83
2023-12-09T08:07:35.570Z,46.00
2023-12-09T08:10:05.546Z,46.38
2023-12-09T08:12:33.730Z,47.03
2023-12-09T08:15:01.900Z,45.95
2023-12-09T08:17:30.366Z,44.28
2023-12-09T08:19:58.569Z,42.05
2023-12-09T08:22:26.924Z,44.45
2023-12-09T08:24:55.169Z,42.70
2023-12-09T08:27:24.540Z,43.65
2023-12-09T08:29:52.643Z,42.95
2023-12-09T08:32:20.665Z,42.85
2023-12-09T08:34:57.189Z,41.33
2023-12-09T08:37:31.562Z,41.72
2023-12-09T08:40:03.585Z,40.85
2023-12-09T08:42:33.149Z,40.83
2023-12-09T08:45:01.281Z,35.38
2023-12-09T08:47:29.396Z,39.05
2023-12-09T08:49:57.490Z,36.92
2023-12-09T08:52:25.831Z,37.63
2023-12-09T08:54:57.691Z,36.20
2023-12-09T08:57:28.367Z,34.97
2023-12-09T08:59:57.745Z,38.10
2023-12-09T09:02:28.305Z,37.58
2023-12-09T09:04:56.648Z,37.22
2023-12-09T09:07:24.711Z,37.67
2023-12-09T09:09:52.747Z,36.42
2023-12-09T09:12:20.750Z,36.63
2023-12-09T09:14:48.837Z,35.13
2023-12-09T09:17:18.296Z,34.55
2023-12-09T09:19:46.470Z,36.88
2023-12-09T09:22:14.541Z,35.00
2023-12-09T09:24:42.542Z,31.30
2023-12-09T09:27:10.746Z,32.80
2023-12-09T09:29:39.782Z,33.03
2023-12-09T09:32:09.024Z,30.55
2023-12-09T09:34:38.562Z,28.60
2023-12-09T09:37:06.657Z,27.80
2023-12-09T09:39:34.757Z,28.60
2023-12-09T09:42:12.087Z,27.33
2023-12-09T09:44:45.770Z,25.67
2023-12-09T09:47:16.377Z,23.67
2023-12-09T09:49:48.949Z,23.17
2023-12-09T09:52:20.160Z,21.92
2023-12-09T09:54:49.068Z,22.65
2023-12-09T09:57:20.056Z,20.38
2023-12-09T09:59:48.727Z,20.33
2023-12-09T10:02:21.699Z,21.50
2023-12-09T10:04:51.081Z,18.92
2023-12-09T10:07:19.439Z,18.90
2023-12-09T10:09:47.595Z,17.90
2023-12-09T10:12:16.045Z,17.65
2023-12-09T10:14:44.073Z,19.73
2023-12-09T10:17:13.114Z,18.65
2023-12-09T10:19:41.497Z,17.65
2023-12-09T10:22:10.845Z,18.40
2023-12-09T10:24:43.589Z,17.25
2023-12-09T10:27:16.840Z,17.00
2023-12-09T10:29:47.398Z,17.55
2023-12-09T10:32:15.957Z,18.40
2023-12-09T10:34:44.310Z,20.52
2023-12-09T10:37:14.412Z,19.48
2023-12-09T10:39:45.916Z,17.40
2023-12-09T10:42:14.397Z,18.47
2023-12-09T10:44:43.517Z,17.52
2023-12-09T10:47:11.595Z,18.70
2023-12-09T10:49:39.734Z,18.70
2023-12-09T10:52:08.785Z,18.75
2023-12-09T10:54:38.386Z,19.52
2023-12-09T10:57:07.062Z,19.73
2023-12-09T10:59:36.427Z,18.15
2023-12-09T11:02:04.914Z,18.52
2023-12-09T11:04:38.154Z,18.42
2023-12-09T11:07:09.619Z,20.55
2023-12-09T11:09:40.154Z,21.08
2023-12-09T11:12:09.864Z,18.80
2023-12-09T11:14:40.104Z,20.73
2023-12-09T11:17:35.745Z,21.63
2023-12-09T11:20:12.227Z,21.75
2023-12-09T11:22:41.474Z,22.42
2023-12-09T11:25:13.337Z,23.50
2023-12-09T11:27:41.480Z,22.83
2023-12-09T11:30:30.740Z,20.88
2023-12-09T11:32:59.209Z,20.25
2023-12-09T11:35:28.765Z,20.95
2023-12-09T11:37:58.825Z,21.02
2023-12-09T11:40:30.233Z,21.30
2023-12-09T11:42:58.812Z,19.55
2023-12-09T11:45:27.020Z,18.50
2023-12-09T11:47:57.916Z,15.38
2023-12-09T11:50:28.825Z,16.00
2023-12-09T11:52:57.187Z,16.48
2023-12-09T11:55:25.363Z,13.20
2023-12-09T11:57:54.800Z,12.88
2023-12-09T12:00:23.002Z,11.57
2023-12-09T12:02:51.233Z,13.88
2023-12-09T12:05:19.432Z,13.13
2023-12-09T12:07:47.659Z,13.07
2023-12-09T12:10:16.982Z,10.85
2023-12-09T12:12:46.128Z,12.63
2023-12-09T12:15:15.883Z,12.18
2023-12-09T12:17:44.244Z,12.73
2023-12-09T12:20:14.042Z,15.10
2023-12-09T12:22:42.948Z,14.05
2023-12-09T12:25:11.982Z,13.63
2023-12-09T12:27:45.661Z,13.27
2023-12-09T12:30:15.829Z,14.55
2023-12-09T12:32:44.988Z,15.27
2023-12-09T12:35:13.468Z,14.68
2023-12-09T12:37:42.625Z,14.60
2023-12-09T12:40:12.391Z,13.25
2023-12-09T12:42:40.748Z,14.30
2023-12-09T12:45:20.404Z,14.07
2023-12-09T12:47:49.502Z,14.43
2023-12-09T12:50:18.303Z,16.10
2023-12-09T12:52:46.997Z,16.00
2023-12-09T12:55:15.286Z,16.75
2023-12-09T12:57:44.941Z,17.27
2023-12-09T13:00:15.613Z,18.02
2023-12-09T13:02:45.523Z,15.82
2023-12-09T13:05:13.824Z,16.00
2023-12-09T13:07:42.044Z,15.98
2023-12-09T13:10:10.425Z,15.00
2023-12-09T13:12:38.724Z,15.48
2023-12-09T13:15:07.969Z,16.08
2023-12-09T13:17:36.619Z,16.20
2023-12-09T13:20:07.961Z,17.63
2023-12-09T13:22:36.953Z,18.10
2023-12-09T13:25:06.939Z,17.20
2023-12-09T13:27:35.509Z,14.52
2023-12-09T13:30:06.031Z,14.05
2023-12-09T13:32:34.302Z,14.82
2023-12-09T13:35:02.583Z,14.27
2023-12-09T13:37:32.302Z,16.25
2023-12-09T13:40:00.946Z,15.65
2023-12-09T13:42:30.051Z,16.48
2023-12-09T13:44:59.345Z,15.85
2023-12-09T13:47:27.616Z,13.80
2023-12-09T13:49:55.979Z,15.43
2023-12-09T13:52:25.414Z,14.30
2023-12-09T13:54:55.302Z,15.55
2023-12-09T13:57:23.690Z,14.60
2023-12-09T13:59:51.868Z,14.93
2023-12-09T14:02:20.190Z,14.98
2023-12-09T14:04:49.274Z,15.73
2023-12-09T14:07:17.607Z,14.98
2023-12-09T14:09:47.430Z,14.30
2023-12-09T14:12:17.177Z,16.63
2023-12-09T14:14:45.343Z,16.10
2023-12-09T14:17:13.704Z,16.63
2023-12-09T14:19:41.983Z,18.42
2023-12-09T14:22:11.131Z,16.63
2023-12-09T14:24:39.442Z,18.08
2023-12-09T14:27:07.757Z,18.10
2023-12-09T14:29:37.385Z,18.05
2023-12-09T14:32:06.090Z,18.38
2023-12-09T14:34:34.524Z,19.73
2023-12-09T14:37:03.233Z,19.88
2023-12-09T14:39:31.635Z,20.98
2023-12-09T14:41:59.835Z,20.77
2023-12-09T14:44:28.035Z,23.42
2023-12-09T14:46:57.664Z,21.80
2023-12-09T14:49:26.075Z,23.23
2023-12-09T14:51:54.477Z,23.35
2023-12-09T14:54:23.203Z,25.27
2023-12-09T14:56:51.537Z,24.20
2023-12-09T14:59:19.788Z,25.42
2023-12-09T15:01:48.030Z,25.38
2023-12-09T15:04:18.215Z,27.30
2023-12-09T15:06:48.247Z,28.75
2023-12-09T15:09:18.268Z,31.00
2023-12-09T15:11:47.185Z,33.30
2023-12-09T15:14:15.415Z,33.95
2023-12-09T15:16:43.838Z,36.30
2023-12-09T15:19:12.180Z,40.85
2023-12-09T15:21:41.888Z,45.25
2023-12-09T15:24:10.291Z,46.75
2023-12-09T15:26:38.659Z,50.80
2023-12-09T15:29:07.071Z,52.08
2023-12-09T15:31:35.239Z,53.60
2023-12-09T15:34:04.087Z,53.13
2023-12-09T15:36:32.438Z,59.53
2023-12-09T15:39:04.799Z,60.08
2023-12-09T15:44:01.123Z,81.10
2023-12-09T15:46:30.016Z,56.17
2023-12-09T15:49:01.298Z,64.13
2023-12-09T15:51:29.839Z,70.10
2023-12-09T15:53:58.326Z,69.85
2023-12-09T15:56:27.953Z,69.90
2023-12-09T15:58:56.177Z,69.53
2023-12-09T16:01:24.520Z,69.50
2023-12-09T16:03:53.425Z,71.78
2023-12-09T16:06:21.933Z,78.68
2023-12-09T16:08:50.197Z,76.78
2023-12-09T16:11:18.374Z,77.82
2023-12-09T16:13:47.972Z,77.75
2023-12-09T16:16:16.685Z,81.80
2023-12-09T16:18:44.980Z,86.72
2023-12-09T16:21:13.281Z,89.43
2023-12-09T16:23:41.575Z,93.75
2023-12-09T16:26:12.071Z,111.22
2023-12-09T16:28:41.073Z,110.68
2023-12-09T16:31:15.701Z,116.28
2023-12-09T16:33:44.433Z,126.63
2023-12-09T16:36:13.603Z,126.22
2023-12-09T16:38:41.804Z,134.52
2023-12-09T16:41:09.974Z,135.07
2023-12-09T16:43:39.569Z,138.75
2023-12-09T16:46:09.362Z,140.18
2023-12-09T16:48:39.167Z,149.98
2023-12-09T16:51:07.632Z,149.70
2023-12-09T16:53:35.819Z,150.32
2023-12-09T16:56:04.023Z,184.48
2023-12-09T16:58:32.221Z,156.50
2023-12-09T17:01:00.544Z,188.60
2023-12-09T17:03:28.897Z,148.70
2023-12-09T17:05:58.520Z,158.90
2023-12-09T17:08:28.541Z,155.05
2023-12-09T17:10:58.907Z,161.40
2023-12-09T17:13:27.135Z,157.85
2023-12-09T17:15:55.416Z,154.02
2023-12-09T17:18:23.767Z,164.27
2023-12-09T17:20:52.321Z,161.40
2023-12-09T17:23:22.280Z,161.95
2023-12-09T17:25:50.471Z,163.05
2023-12-09T17:28:19.980Z,169.68
2023-12-09T17:30:49.367Z,240.10
2023-12-09T17:33:18.186Z,170.25
2023-12-09T17:35:47.049Z,160.52
2023-12-09T17:38:15.264Z,158.25
2023-12-09T17:40:47.493Z,153.73
2023-12-09T17:45:43.709Z,152.85
2023-12-09T17:48:12.297Z,151.32
2023-12-09T17:50:40.601Z,143.60
2023-12-09T17:53:08.777Z,126.82
2023-12-09T17:55:36.987Z,96.93
2023-12-09T17:58:07.019Z,54.22
2023-12-09T18:00:37.715Z,32.47
2023-12-09T18:03:06.121Z,23.08
2023-12-09T18:05:34.495Z,16.90
2023-12-09T18:08:02.723Z,14.13
2023-12-09T18:10:30.885Z,11.60
2023-12-09T18:12:59.194Z,10.05
2023-12-09T18:15:28.934Z,9.20
2023-12-09T18:17:57.313Z,10.27
2023-12-09T18:20:25.928Z,7.82
2023-12-09T18:22:57.049Z,8.23
2023-12-09T18:25:26.766Z,8.00
2023-12-09T18:27:55.058Z,8.13
2023-12-09T18:30:23.847Z,7.43
2023-12-09T18:32:54.047Z,8.13
2023-12-09T18:35:22.281Z,8.10
2023-12-09T18:37:52.057Z,7.45
2023-12-09T18:40:21.937Z,7.25
2023-12-09T18:42:52.254Z,7.80
2023-12-09T18:45:21.926Z,7.88
2023-12-09T18:47:51.407Z,7.93
2023-12-09T18:50:21.068Z,8.60
2023-12-09T18:52:49.235Z,6.63
2023-12-09T18:55:20.273Z,8.00
2023-12-09T18:57:48.665Z,7.15
2023-12-09T19:00:17.781Z,7.50
2023-12-09T19:02:46.092Z,6.57
2023-12-09T19:05:14.426Z,7.65
2023-12-09T19:07:44.105Z,7.07
2023-12-09T19:10:12.504Z,6.32
2023-12-09T19:12:40.713Z,6.07
2023-12-09T19:15:09.810Z,6.63
2023-12-09T19:17:38.229Z,7.25
2023-12-09T19:20:08.449Z,6.75
2023-12-09T19:22:36.880Z,6.85
2023-12-09T19:25:07.758Z,6.75
2023-12-09T19:27:35.955Z,5.53
2023-12-09T19:30:06.448Z,6.10
2023-12-09T19:32:34.699Z,7.28
2023-12-09T19:35:02.972Z,6.70
2023-12-09T19:37:31.490Z,6.32
2023-12-09T19:39:59.723Z,5.97
2023-12-09T19:42:29.675Z,7.50
2023-12-09T19:44:58.009Z,6.75
2023-12-09T19:47:27.071Z,6.47
2023-12-09T19:49:55.704Z,5.82
2023-12-09T19:52:24.322Z,6.78
2023-12-09T19:54:54.662Z,6.55
2023-12-09T19:57:22.964Z,8.00
2023-12-09T19:59:52.569Z,4.63
2023-12-09T20:02:20.745Z,7.30
2023-12-09T20:04:49.445Z,7.50
2023-12-09T20:07:17.771Z,9.70
2023-12-09T20:09:46.148Z,6.78
2023-12-09T20:12:14.473Z,7.78
2023-12-09T20:14:43.709Z,7.32
2023-12-09T20:17:13.686Z,7.22
2023-12-09T20:19:42.025Z,7.30
2023-12-09T20:22:12.718Z,7.35
2023-12-09T20:24:41.156Z,6.65
2023-12-09T20:27:09.520Z,7.75
2023-12-09T20:29:37.743Z,7.95
2023-12-09T20:32:06.823Z,7.47
2023-12-09T20:34:36.625Z,6.90
2023-12-09T20:37:05.039Z,7.07
2023-12-09T20:39:33.335Z,8.10
2023-12-09T20:42:01.535Z,6.50
2023-12-09T20:44:29.936Z,7.45
2023-12-09T20:46:58.176Z,7.72
2023-12-09T20:49:26.435Z,6.20
2023-12-09T20:51:56.975Z,6.25
2023-12-09T20:54:25.244Z,6.55
2023-12-09T20:56:53.465Z,6.97
2023-12-09T20:59:22.086Z,5.78
2023-12-09T21:01:53.574Z,7.20
2023-12-09T21:04:24.271Z,7.47
2023-12-09T21:06:52.722Z,7.00
2023-12-09T21:09:23.679Z,6.75
2023-12-09T21:11:54.316Z,7.53
2023-12-09T21:14:22.640Z,8.00
2023-12-09T21:16:51.067Z,6.65
2023-12-09T21:19:19.335Z,5.90
2023-12-09T21:21:48.175Z,7.13
2023-12-09T21:24:16.549Z,8.48
2023-12-09T21:26:46.163Z,7.00
2023-12-09T21:29:14.303Z,7.20
2023-12-09T21:31:42.465Z,7.13
2023-12-09T21:34:11.034Z,6.97
2023-12-09T21:36:39.446Z,7.13
2023-12-09T21:39:09.767Z,7.80
2023-12-09T21:41:38.168Z,7.40
2023-12-09T21:44:07.816Z,7.82
2023-12-09T21:46:35.978Z,6.85
2023-12-09T21:49:04.232Z,7.65
2023-12-09T21:51:32.562Z,7.85
2023-12-09T21:54:00.798Z,7.57
2023-12-09T21:56:29.337Z,6.20
2023-12-09T21:58:57.704Z,8.40
2023-12-09T22:01:27.363Z,8.10
2023-12-09T22:03:55.772Z,8.82
2023-12-09T22:06:24.079Z,8.43
2023-12-09T22:08:52.257Z,7.80
2023-12-09T22:11:21.440Z,7.20
2023-12-09T22:13:49.808Z,7.90
2023-12-09T22:16:21.315Z,9.00
2023-12-09T22:18:51.510Z,7.33
2023-12-09T22:21:21.059Z,7.60
2023-12-09T22:23:49.302Z,7.43
2023-12-09T22:26:17.560Z,7.53
2023-12-09T22:28:45.754Z,7.70
2023-12-09T22:31:14.358Z,7.20
2023-12-09T22:33:42.765Z,8.30
2023-12-09T22:36:20.846Z,5.47
2023-12-09T22:38:49.218Z,7.75
2023-12-09T22:41:22.553Z,7.20
2023-12-09T22:43:51.334Z,7.85
2023-12-09T22:46:28.344Z,7.35
2023-12-09T22:48:57.145Z,6.65
2023-12-09T22:51:27.556Z,7.47
2023-12-09T22:53:56.225Z,7.53
2023-12-09T22:56:25.798Z,8.10
2023-12-09T22:58:55.175Z,6.57
2023-12-09T23:01:24.758Z,7.38
2023-12-09T23:03:53.652Z,7.88
2023-12-09T23:06:23.580Z,7.03
2023-12-09T23:08:53.398Z,7.47
2023-12-09T23:11:21.671Z,7.43
2023-12-09T23:13:49.891Z,6.90
2023-12-09T23:16:18.054Z,7.10
2023-12-09T23:18:46.558Z,6.40
2023-12-09T23:21:15.063Z,7.60
2023-12-09T23:23:43.399Z,7.70
2023-12-09T23:26:12.998Z,8.23
2023-12-09T23:28:41.287Z,7.97
2023-12-09T23:31:09.563Z,6.82
2023-12-09T23:33:38.000Z,7.63
2023-12-09T23:36:06.775Z,7.43
2023-12-09T23:38:35.124Z,8.23
2023-12-09T23:41:03.386Z,8.68
2023-12-09T23:43:32.967Z,7.35
2023-12-09T23:46:01.253Z,8.15
2023-12-09T23:48:29.729Z,7.88
2023-12-09T23:50:57.973Z,9.77
2023-12-09T23:53:25.248Z,8.82
2023-12-09T23:55:53.603Z,9.60
2023-12-09T23:58:21.934Z,11.43
